Murphreesboro, Mississippi
Current Conditions -  °F | °C
As of 4:35 PM on Sunday 23 Nov 2014 (Local Time) from KGNF Reporting Station
Overcast Overcast  
Wind Chill: 61°   Ceiling: 1400
Heat Index: 61°   Visibility: 10mi
Dew Point: 59°   Wind: 9mph
Humidity: 94%   Direction: 220°SW
Pressure: 29.47"   Gusts: 20mph
Location:  33.9874°N, 89.8756°W
Report Text: KGNF 232235Z AUTO 22008G17KT 202V262 10SM BKN014 OVC019 16/15 A2947 RMK AO2
Loading
Personal Weather Stations






























Interactive Weather Map New forecast layout! Learn more

10-Day Weather Forecast

Advertisements
Track Severe Weather on mobile